sensor_id;sensor_type;location;lat;lon;timestamp;pressure;altitude;pressure_sealevel;temperature;humidity
6395;BME280;3230;42.588;23.358;2023-04-16T00:01:35;90550.13;;;8.05;80.92
6395;BME280;3230;42.588;23.358;2023-04-16T00:04:01;90540.38;;;8.21;80.59
6395;BME280;3230;42.588;23.358;2023-04-16T00:06:26;90542.13;;;8.36;80.28
6395;BME280;3230;42.588;23.358;2023-04-16T00:08:52;90543.16;;;8.40;80.40
6395;BME280;3230;42.588;23.358;2023-04-16T00:11:18;90543.38;;;8.48;80.16
6395;BME280;3230;42.588;23.358;2023-04-16T00:13:43;90545.16;;;8.53;80.15
6395;BME280;3230;42.588;23.358;2023-04-16T00:16:08;90544.06;;;8.59;80.20
6395;BME280;3230;42.588;23.358;2023-04-16T00:18:34;90541.06;;;8.42;81.43
6395;BME280;3230;42.588;23.358;2023-04-16T00:20:59;90538.66;;;8.51;80.39
6395;BME280;3230;42.588;23.358;2023-04-16T00:23:25;90544.47;;;8.37;80.87
6395;BME280;3230;42.588;23.358;2023-04-16T00:25:50;90540.53;;;8.40;81.06
6395;BME280;3230;42.588;23.358;2023-04-16T00:28:17;90531.69;;;8.36;81.17
6395;BME280;3230;42.588;23.358;2023-04-16T00:30:43;90539.72;;;8.44;80.97
6395;BME280;3230;42.588;23.358;2023-04-16T00:33:08;90541.03;;;8.47;81.42
6395;BME280;3230;42.588;23.358;2023-04-16T00:35:33;90537.41;;;8.38;81.70
6395;BME280;3230;42.588;23.358;2023-04-16T00:37:59;90537.69;;;8.36;81.93
6395;BME280;3230;42.588;23.358;2023-04-16T00:40:28;90529.09;;;8.30;81.77
6395;BME280;3230;42.588;23.358;2023-04-16T00:42:54;90534.41;;;8.20;82.88
6395;BME280;3230;42.588;23.358;2023-04-16T00:45:19;90524.19;;;8.24;82.80
6395;BME280;3230;42.588;23.358;2023-04-16T00:47:45;90529.19;;;8.20;83.10
6395;BME280;3230;42.588;23.358;2023-04-16T00:50:11;90523.19;;;8.20;83.08
6395;BME280;3230;42.588;23.358;2023-04-16T00:52:37;90516.47;;;8.08;83.08
6395;BME280;3230;42.588;23.358;2023-04-16T00:55:05;90524.00;;;8.10;82.93
6395;BME280;3230;42.588;23.358;2023-04-16T00:57:33;90518.31;;;8.08;82.94
6395;BME280;3230;42.588;23.358;2023-04-16T00:59:59;90519.59;;;8.10;83.21
6395;BME280;3230;42.588;23.358;2023-04-16T01:02:24;90519.38;;;7.96;83.75
6395;BME280;3230;42.588;23.358;2023-04-16T01:04:50;90518.66;;;7.91;83.79
6395;BME280;3230;42.588;23.358;2023-04-16T01:07:16;90510.09;;;7.80;83.89
6395;BME280;3230;42.588;23.358;2023-04-16T01:09:41;90517.09;;;7.90;83.54
6395;BME280;3230;42.588;23.358;2023-04-16T01:12:06;90517.38;;;7.88;83.81
6395;BME280;3230;42.588;23.358;2023-04-16T01:14:32;90512.72;;;7.80;84.18
6395;BME280;3230;42.588;23.358;2023-04-16T01:17:01;90515.81;;;7.87;83.90
6395;BME280;3230;42.588;23.358;2023-04-16T01:19:27;90521.06;;;7.77;83.87
6395;BME280;3230;42.588;23.358;2023-04-16T01:21:55;90513.81;;;7.68;84.56
6395;BME280;3230;42.588;23.358;2023-04-16T01:24:20;90514.56;;;7.74;83.94
6395;BME280;3230;42.588;23.358;2023-04-16T01:26:46;90515.38;;;7.64;84.21
6395;BME280;3230;42.588;23.358;2023-04-16T01:29:11;90505.75;;;7.65;83.89
6395;BME280;3230;42.588;23.358;2023-04-16T01:31:37;90518.03;;;7.59;83.60
6395;BME280;3230;42.588;23.358;2023-04-16T01:34:02;90510.72;;;7.61;83.70
6395;BME280;3230;42.588;23.358;2023-04-16T01:36:27;90521.16;;;7.61;83.58
6395;BME280;3230;42.588;23.358;2023-04-16T01:38:53;90503.47;;;7.48;83.07
6395;BME280;3230;42.588;23.358;2023-04-16T01:41:18;90510.47;;;7.58;82.96
6395;BME280;3230;42.588;23.358;2023-04-16T01:43:44;90506.81;;;7.59;83.20
6395;BME280;3230;42.588;23.358;2023-04-16T01:46:14;90507.31;;;7.61;82.91
6395;BME280;3230;42.588;23.358;2023-04-16T01:48:42;90497.16;;;7.59;83.00
6395;BME280;3230;42.588;23.358;2023-04-16T01:51:07;90499.72;;;7.69;83.01
6395;BME280;3230;42.588;23.358;2023-04-16T01:53:34;90493.72;;;7.69;83.17
6395;BME280;3230;42.588;23.358;2023-04-16T01:55:59;90488.53;;;7.64;83.25
6395;BME280;3230;42.588;23.358;2023-04-16T01:58:27;90486.22;;;7.57;83.13
6395;BME280;3230;42.588;23.358;2023-04-16T02:00:54;90490.38;;;7.58;82.44
6395;BME280;3230;42.588;23.358;2023-04-16T02:03:20;90487.50;;;7.60;82.51
6395;BME280;3230;42.588;23.358;2023-04-16T02:05:48;90495.56;;;7.63;82.81
6395;BME280;3230;42.588;23.358;2023-04-16T02:08:13;90489.56;;;7.68;81.67
6395;BME280;3230;42.588;23.358;2023-04-16T02:10:39;90488.22;;;7.76;80.86
6395;BME280;3230;42.588;23.358;2023-04-16T02:13:04;90492.41;;;7.72;80.80
6395;BME280;3230;42.588;23.358;2023-04-16T02:15:29;90495.81;;;7.72;80.64
6395;BME280;3230;42.588;23.358;2023-04-16T02:17:55;90496.31;;;7.74;80.71
6395;BME280;3230;42.588;23.358;2023-04-16T02:20:21;90498.66;;;7.76;81.95
6395;BME280;3230;42.588;23.358;2023-04-16T02:22:46;90492.13;;;7.73;81.87
6395;BME280;3230;42.588;23.358;2023-04-16T02:25:12;90491.94;;;7.59;82.39
6395;BME280;3230;42.588;23.358;2023-04-16T02:27:38;90493.28;;;7.51;84.59
6395;BME280;3230;42.588;23.358;2023-04-16T02:30:04;90489.09;;;7.56;84.36
6395;BME280;3230;42.588;23.358;2023-04-16T02:32:30;90488.31;;;7.55;84.50
6395;BME280;3230;42.588;23.358;2023-04-16T02:34:55;90489.84;;;7.56;84.25
6395;BME280;3230;42.588;23.358;2023-04-16T02:37:21;90487.25;;;7.56;83.84
6395;BME280;3230;42.588;23.358;2023-04-16T02:39:47;90485.97;;;7.53;83.87
6395;BME280;3230;42.588;23.358;2023-04-16T02:42:14;90490.94;;;7.50;83.68
6395;BME280;3230;42.588;23.358;2023-04-16T02:44:40;90485.19;;;7.53;83.69
6395;BME280;3230;42.588;23.358;2023-04-16T02:47:06;90477.66;;;7.51;84.03
6395;BME280;3230;42.588;23.358;2023-04-16T02:49:31;90475.25;;;7.60;83.53
6395;BME280;3230;42.588;23.358;2023-04-16T02:51:56;90475.22;;;7.65;83.70
6395;BME280;3230;42.588;23.358;2023-04-16T02:54:22;90477.81;;;7.71;83.36
6395;BME280;3230;42.588;23.358;2023-04-16T02:56:47;90474.19;;;7.66;83.68
6395;BME280;3230;42.588;23.358;2023-04-16T02:59:12;90476.50;;;7.68;84.13
6395;BME280;3230;42.588;23.358;2023-04-16T03:01:38;90478.06;;;7.69;84.41
6395;BME280;3230;42.588;23.358;2023-04-16T03:04:03;90472.09;;;7.68;84.28
6395;BME280;3230;42.588;23.358;2023-04-16T03:06:29;90462.72;;;7.62;84.27
6395;BME280;3230;42.588;23.358;2023-04-16T03:08:55;90469.78;;;7.62;84.77
6395;BME280;3230;42.588;23.358;2023-04-16T03:11:21;90468.16;;;7.66;85.39
6395;BME280;3230;42.588;23.358;2023-04-16T03:13:46;90469.00;;;7.61;85.77
6395;BME280;3230;42.588;23.358;2023-04-16T03:16:12;90470.56;;;7.57;86.35
6395;BME280;3230;42.588;23.358;2023-04-16T03:18:37;90473.16;;;7.62;85.50
6395;BME280;3230;42.588;23.358;2023-04-16T03:21:03;90472.63;;;7.65;85.73
6395;BME280;3230;42.588;23.358;2023-04-16T03:23:29;90474.22;;;7.61;85.96
6395;BME280;3230;42.588;23.358;2023-04-16T03:25:54;90479.16;;;7.63;85.75
6395;BME280;3230;42.588;23.358;2023-04-16T03:28:20;90474.75;;;7.58;85.04
6395;BME280;3230;42.588;23.358;2023-04-16T03:30:50;90474.72;;;7.63;84.80
6395;BME280;3230;42.588;23.358;2023-04-16T03:33:17;90476.00;;;7.66;84.49
6395;BME280;3230;42.588;23.358;2023-04-16T03:35:42;90472.09;;;7.68;84.19
6395;BME280;3230;42.588;23.358;2023-04-16T03:38:08;90478.88;;;7.64;84.50
6395;BME280;3230;42.588;23.358;2023-04-16T03:40:33;90484.63;;;7.66;84.51
6395;BME280;3230;42.588;23.358;2023-04-16T03:42:58;90476.56;;;7.58;86.23
6395;BME280;3230;42.588;23.358;2023-04-16T03:45:24;90477.41;;;7.48;86.98
6395;BME280;3230;42.588;23.358;2023-04-16T03:47:49;90484.91;;;7.55;87.49
6395;BME280;3230;42.588;23.358;2023-04-16T03:50:18;90480.97;;;7.67;85.89
6395;BME280;3230;42.588;23.358;2023-04-16T03:52:44;90480.44;;;7.65;85.43
6395;BME280;3230;42.588;23.358;2023-04-16T03:55:11;90485.13;;;7.68;85.26
6395;BME280;3230;42.588;23.358;2023-04-16T03:57:36;90472.63;;;7.65;85.63
6395;BME280;3230;42.588;23.358;2023-04-16T04:00:02;90482.81;;;7.62;86.31
6395;BME280;3230;42.588;23.358;2023-04-16T04:02:28;90483.31;;;7.64;86.69
6395;BME280;3230;42.588;23.358;2023-04-16T04:04:53;90486.19;;;7.62;86.60
6395;BME280;3230;42.588;23.358;2023-04-16T04:07:19;90485.38;;;7.67;86.70
6395;BME280;3230;42.588;23.358;2023-04-16T04:09:44;90487.19;;;7.72;86.41
6395;BME280;3230;42.588;23.358;2023-04-16T04:12:10;90487.16;;;7.82;86.49
6395;BME280;3230;42.588;23.358;2023-04-16T04:14:35;90486.56;;;7.95;86.13
6395;BME280;3230;42.588;23.358;2023-04-16T04:17:07;90485.94;;;8.09;86.21
6395;BME280;3230;42.588;23.358;2023-04-16T04:19:33;90491.59;;;8.21;85.63
6395;BME280;3230;42.588;23.358;2023-04-16T04:21:58;90488.44;;;8.24;84.94
6395;BME280;3230;42.588;23.358;2023-04-16T04:24:24;90500.66;;;8.29;84.24
6395;BME280;3230;42.588;23.358;2023-04-16T04:26:50;90494.13;;;8.31;84.28
6395;BME280;3230;42.588;23.358;2023-04-16T04:29:15;90503.47;;;8.38;83.86
6395;BME280;3230;42.588;23.358;2023-04-16T04:31:41;90503.50;;;8.32;83.83
6395;BME280;3230;42.588;23.358;2023-04-16T04:34:06;90509.72;;;8.47;82.89
6395;BME280;3230;42.588;23.358;2023-04-16T04:36:31;90510.69;;;8.56;82.63
6395;BME280;3230;42.588;23.358;2023-04-16T04:38:57;90513.31;;;8.56;83.69
6395;BME280;3230;42.588;23.358;2023-04-16T04:41:26;90508.09;;;8.56;85.10
6395;BME280;3230;42.588;23.358;2023-04-16T04:43:51;90517.25;;;8.54;85.86
6395;BME280;3230;42.588;23.358;2023-04-16T04:46:17;90510.09;;;8.64;84.36
6395;BME280;3230;42.588;23.358;2023-04-16T04:48:42;90512.56;;;8.80;82.38
6395;BME280;3230;42.588;23.358;2023-04-16T04:51:07;90516.22;;;8.84;82.14
6395;BME280;3230;42.588;23.358;2023-04-16T04:53:33;90525.72;;;8.99;80.82
6395;BME280;3230;42.588;23.358;2023-04-16T04:55:58;90522.56;;;9.02;80.35
6395;BME280;3230;42.588;23.358;2023-04-16T04:58:24;90520.41;;;9.09;80.43
6395;BME280;3230;42.588;23.358;2023-04-16T05:00:49;90521.13;;;9.15;80.34
6395;BME280;3230;42.588;23.358;2023-04-16T05:03:18;90514.63;;;9.12;81.26
6395;BME280;3230;42.588;23.358;2023-04-16T05:05:44;90525.44;;;9.01;82.97
6395;BME280;3230;42.588;23.358;2023-04-16T05:08:10;90517.84;;;9.04;84.42
6395;BME280;3230;42.588;23.358;2023-04-16T05:10:35;90515.75;;;9.06;84.75
6395;BME280;3230;42.588;23.358;2023-04-16T05:13:00;90508.00;;;9.20;84.14
6395;BME280;3230;42.588;23.358;2023-04-16T05:15:26;90512.91;;;9.27;84.31
6395;BME280;3230;42.588;23.358;2023-04-16T05:17:52;90505.75;;;9.38;83.69
6395;BME280;3230;42.588;23.358;2023-04-16T05:20:17;90507.13;;;9.54;83.95
6395;BME280;3230;42.588;23.358;2023-04-16T05:22:43;90508.50;;;9.71;83.94
6395;BME280;3230;42.588;23.358;2023-04-16T05:25:08;90505.28;;;9.79;82.06
6395;BME280;3230;42.588;23.358;2023-04-16T05:27:35;90509.59;;;10.08;81.04
6395;BME280;3230;42.588;23.358;2023-04-16T05:30:01;90512.78;;;10.05;81.49
6395;BME280;3230;42.588;23.358;2023-04-16T05:32:27;90508.53;;;10.47;76.39
6395;BME280;3230;42.588;23.358;2023-04-16T05:34:52;90514.47;;;10.72;76.73
6395;BME280;3230;42.588;23.358;2023-04-16T05:37:18;90509.03;;;10.82;78.23
6395;BME280;3230;42.588;23.358;2023-04-16T05:39:43;90512.56;;;10.92;78.85
6395;BME280;3230;42.588;23.358;2023-04-16T05:42:08;90509.31;;;10.67;79.27
6395;BME280;3230;42.588;23.358;2023-04-16T05:44:34;90511.56;;;10.54;79.72
6395;BME280;3230;42.588;23.358;2023-04-16T05:46:59;90506.34;;;10.54;80.93
6395;BME280;3230;42.588;23.358;2023-04-16T05:49:25;90521.00;;;10.88;78.55
6395;BME280;3230;42.588;23.358;2023-04-16T05:51:50;90517.16;;;11.00;78.43
6395;BME280;3230;42.588;23.358;2023-04-16T05:54:16;90507.19;;;11.16;77.19
6395;BME280;3230;42.588;23.358;2023-04-16T05:56:41;90523.44;;;11.32;77.07
6395;BME280;3230;42.588;23.358;2023-04-16T05:59:07;90515.94;;;11.39;76.94
6395;BME280;3230;42.588;23.358;2023-04-16T06:01:32;90510.44;;;11.55;77.10
6395;BME280;3230;42.588;23.358;2023-04-16T06:03:57;90507.28;;;11.66;77.54
6395;BME280;3230;42.588;23.358;2023-04-16T06:06:23;90510.56;;;12.14;76.82
6395;BME280;3230;42.588;23.358;2023-04-16T06:08:48;90516.75;;;12.46;76.59
6395;BME280;3230;42.588;23.358;2023-04-16T06:11:14;90505.84;;;12.61;75.79
6395;BME280;3230;42.588;23.358;2023-04-16T06:13:39;90509.09;;;12.81;73.87
6395;BME280;3230;42.588;23.358;2023-04-16T06:16:05;90509.97;;;12.99;72.45
6395;BME280;3230;42.588;23.358;2023-04-16T06:18:30;90513.00;;;13.15;70.87
6395;BME280;3230;42.588;23.358;2023-04-16T06:20:56;90512.56;;;13.45;72.73
6395;BME280;3230;42.588;23.358;2023-04-16T06:23:23;90500.19;;;13.94;69.63
6395;BME280;3230;42.588;23.358;2023-04-16T06:25:48;90507.56;;;14.94;62.32
6395;BME280;3230;42.588;23.358;2023-04-16T06:28:14;90515.28;;;15.73;55.98
6395;BME280;3230;42.588;23.358;2023-04-16T06:30:39;90513.25;;;15.70;56.32
6395;BME280;3230;42.588;23.358;2023-04-16T06:33:05;90513.31;;;16.51;52.48
6395;BME280;3230;42.588;23.358;2023-04-16T06:35:30;90510.50;;;16.98;50.65
6395;BME280;3230;42.588;23.358;2023-04-16T06:37:56;90512.16;;;16.82;53.03
6395;BME280;3230;42.588;23.358;2023-04-16T06:40:21;90516.22;;;17.21;49.66
6395;BME280;3230;42.588;23.358;2023-04-16T06:42:47;90508.81;;;16.72;48.97
6395;BME280;3230;42.588;23.358;2023-04-16T06:45:12;90514.19;;;17.18;49.23
6395;BME280;3230;42.588;23.358;2023-04-16T06:47:38;90524.06;;;17.30;47.11
6395;BME280;3230;42.588;23.358;2023-04-16T06:50:03;90523.31;;;17.30;46.83
6395;BME280;3230;42.588;23.358;2023-04-16T06:52:29;90527.47;;;16.76;48.98
6395;BME280;3230;42.588;23.358;2023-04-16T06:54:55;90519.13;;;16.44;48.47
6395;BME280;3230;42.588;23.358;2023-04-16T06:57:20;90516.69;;;16.09;50.00
6395;BME280;3230;42.588;23.358;2023-04-16T06:59:46;90525.16;;;15.46;53.01
6395;BME280;3230;42.588;23.358;2023-04-16T07:02:11;90519.53;;;15.56;52.69
6395;BME280;3230;42.588;23.358;2023-04-16T07:04:37;90521.72;;;15.45;52.90
6395;BME280;3230;42.588;23.358;2023-04-16T07:07:02;90523.81;;;15.70;54.15
6395;BME280;3230;42.588;23.358;2023-04-16T07:09:28;90522.44;;;15.63;51.82
6395;BME280;3230;42.588;23.358;2023-04-16T07:11:53;90526.69;;;16.24;51.39
6395;BME280;3230;42.588;23.358;2023-04-16T07:14:19;90531.34;;;15.97;49.33
6395;BME280;3230;42.588;23.358;2023-04-16T07:16:44;90523.25;;;16.33;49.17
6395;BME280;3230;42.588;23.358;2023-04-16T07:19:10;90527.16;;;16.99;45.85
6395;BME280;3230;42.588;23.358;2023-04-16T07:21:35;90523.44;;;17.12;45.16
6395;BME280;3230;42.588;23.358;2023-04-16T07:24:01;90527.22;;;16.69;47.33
6395;BME280;3230;42.588;23.358;2023-04-16T07:26:27;90523.38;;;16.36;49.33
6395;BME280;3230;42.588;23.358;2023-04-16T07:28:52;90521.84;;;16.99;46.43
6395;BME280;3230;42.588;23.358;2023-04-16T07:31:18;90529.88;;;17.57;45.42
6395;BME280;3230;42.588;23.358;2023-04-16T07:33:43;90529.97;;;18.19;43.69
6395;BME280;3230;42.588;23.358;2023-04-16T07:36:08;90524.53;;;18.28;43.03
6395;BME280;3230;42.588;23.358;2023-04-16T07:38:35;90516.88;;;17.77;44.70
6395;BME280;3230;42.588;23.358;2023-04-16T07:41:00;90518.97;;;17.71;44.59
6395;BME280;3230;42.588;23.358;2023-04-16T07:43:26;90529.34;;;17.64;45.21
6395;BME280;3230;42.588;23.358;2023-04-16T07:45:51;90528.97;;;17.53;45.00
6395;BME280;3230;42.588;23.358;2023-04-16T07:48:16;90528.66;;;17.54;46.02
6395;BME280;3230;42.588;23.358;2023-04-16T07:50:42;90531.97;;;18.22;43.30
6395;BME280;3230;42.588;23.358;2023-04-16T07:53:08;90536.25;;;18.39;43.15
6395;BME280;3230;42.588;23.358;2023-04-16T07:55:33;90515.94;;;18.72;41.69
6395;BME280;3230;42.588;23.358;2023-04-16T07:57:59;90531.72;;;19.78;41.00
6395;BME280;3230;42.588;23.358;2023-04-16T08:00:25;90529.84;;;20.42;38.93
6395;BME280;3230;42.588;23.358;2023-04-16T08:02:50;90529.84;;;20.10;39.38
6395;BME280;3230;42.588;23.358;2023-04-16T08:05:16;90532.00;;;20.05;38.66
6395;BME280;3230;42.588;23.358;2023-04-16T08:07:41;90525.41;;;20.15;39.09
6395;BME280;3230;42.588;23.358;2023-04-16T08:10:07;90518.38;;;19.62;39.37
6395;BME280;3230;42.588;23.358;2023-04-16T08:12:33;90511.03;;;19.71;38.98
6395;BME280;3230;42.588;23.358;2023-04-16T08:14:58;90522.84;;;19.74;38.57
6395;BME280;3230;42.588;23.358;2023-04-16T08:17:24;90519.81;;;19.88;38.19
6395;BME280;3230;42.588;23.358;2023-04-16T08:19:49;90524.59;;;20.14;38.82
6395;BME280;3230;42.588;23.358;2023-04-16T08:22:15;90528.75;;;19.51;40.90
6395;BME280;3230;42.588;23.358;2023-04-16T08:24:41;90523.31;;;18.91;40.99
6395;BME280;3230;42.588;23.358;2023-04-16T08:27:06;90520.59;;;19.44;40.21
6395;BME280;3230;42.588;23.358;2023-04-16T08:29:32;90520.69;;;19.47;39.52
6395;BME280;3230;42.588;23.358;2023-04-16T08:31:58;90522.88;;;19.29;38.66
6395;BME280;3230;42.588;23.358;2023-04-16T08:34:23;90519.53;;;19.32;38.51
6395;BME280;3230;42.588;23.358;2023-04-16T08:36:49;90509.81;;;19.53;38.24
6395;BME280;3230;42.588;23.358;2023-04-16T08:39:14;90490.16;;;19.86;36.87
6395;BME280;3230;42.588;23.358;2023-04-16T08:41:42;90517.75;;;20.29;35.54
6395;BME280;3230;42.588;23.358;2023-04-16T08:44:12;90515.16;;;20.49;35.07
6395;BME280;3230;42.588;23.358;2023-04-16T08:46:39;90515.03;;;19.49;37.45
6395;BME280;3230;42.588;23.358;2023-04-16T08:49:06;90507.97;;;19.25;37.92
6395;BME280;3230;42.588;23.358;2023-04-16T08:51:35;90510.75;;;19.44;37.31
6395;BME280;3230;42.588;23.358;2023-04-16T08:54:08;90506.28;;;19.04;38.40
6395;BME280;3230;42.588;23.358;2023-04-16T08:56:35;90503.03;;;18.70;39.71
6395;BME280;3230;42.588;23.358;2023-04-16T08:59:01;90505.72;;;18.58;39.35
6395;BME280;3230;42.588;23.358;2023-04-16T09:01:30;90500.28;;;18.66;39.36
6395;BME280;3230;42.588;23.358;2023-04-16T09:03:57;90505.03;;;18.61;39.98
6395;BME280;3230;42.588;23.358;2023-04-16T09:06:23;90500.84;;;18.60;39.79
6395;BME280;3230;42.588;23.358;2023-04-16T09:08:48;90502.56;;;18.93;40.61
6395;BME280;3230;42.588;23.358;2023-04-16T09:11:18;90503.44;;;18.84;40.23
6395;BME280;3230;42.588;23.358;2023-04-16T09:13:45;90499.28;;;18.71;42.87
6395;BME280;3230;42.588;23.358;2023-04-16T09:16:12;90491.25;;;18.55;42.13
6395;BME280;3230;42.588;23.358;2023-04-16T09:18:37;90497.16;;;18.11;42.96
6395;BME280;3230;42.588;23.358;2023-04-16T09:21:04;90494.16;;;17.88;42.57
6395;BME280;3230;42.588;23.358;2023-04-16T09:23:31;90480.22;;;17.66;43.01
6395;BME280;3230;42.588;23.358;2023-04-16T09:25:58;90496.69;;;17.72;43.92
6395;BME280;3230;42.588;23.358;2023-04-16T09:28:45;90494.41;;;18.08;42.68
6395;BME280;3230;42.588;23.358;2023-04-16T09:31:16;90500.63;;;17.66;42.20
6395;BME280;3230;42.588;23.358;2023-04-16T09:33:42;90498.19;;;17.61;42.95
6395;BME280;3230;42.588;23.358;2023-04-16T09:36:09;90493.69;;;17.86;42.06
6395;BME280;3230;42.588;23.358;2023-04-16T09:38:51;90498.03;;;18.03;43.94
6395;BME280;3230;42.588;23.358;2023-04-16T09:41:16;90474.28;;;18.19;42.01
6395;BME280;3230;42.588;23.358;2023-04-16T09:44:08;90495.16;;;17.96;41.88
6395;BME280;3230;42.588;23.358;2023-04-16T09:46:36;90494.72;;;18.06;41.92
6395;BME280;3230;42.588;23.358;2023-04-16T09:49:08;90492.91;;;18.60;41.25
6395;BME280;3230;42.588;23.358;2023-04-16T09:51:41;90482.97;;;18.44;42.38
6395;BME280;3230;42.588;23.358;2023-04-16T09:54:07;90480.25;;;18.28;43.26
6395;BME280;3230;42.588;23.358;2023-04-16T09:56:38;90477.66;;;18.44;43.11
6395;BME280;3230;42.588;23.358;2023-04-16T09:59:04;90482.75;;;18.37;40.39
6395;BME280;3230;42.588;23.358;2023-04-16T10:01:29;90484.19;;;18.47;40.29
6395;BME280;3230;42.588;23.358;2023-04-16T10:03:55;90474.94;;;18.28;40.14
6395;BME280;3230;42.588;23.358;2023-04-16T10:06:23;90476.25;;;17.85;42.87
6395;BME280;3230;42.588;23.358;2023-04-16T10:08:50;90478.78;;;17.69;42.75
6395;BME280;3230;42.588;23.358;2023-04-16T10:11:18;90471.00;;;17.39;43.34
6395;BME280;3230;42.588;23.358;2023-04-16T10:13:44;90475.56;;;17.63;42.61
6395;BME280;3230;42.588;23.358;2023-04-16T10:16:10;90469.91;;;17.52;41.59
6395;BME280;3230;42.588;23.358;2023-04-16T10:18:38;90465.59;;;17.35;42.04
6395;BME280;3230;42.588;23.358;2023-04-16T10:21:04;90464.44;;;17.57;41.54
6395;BME280;3230;42.588;23.358;2023-04-16T10:23:31;90457.81;;;17.51;42.81
6395;BME280;3230;42.588;23.358;2023-04-16T10:25:58;90460.25;;;17.69;42.93
6395;BME280;3230;42.588;23.358;2023-04-16T10:28:25;90452.91;;;17.41;44.43
6395;BME280;3230;42.588;23.358;2023-04-16T10:30:54;90453.81;;;17.45;42.99
6395;BME280;3230;42.588;23.358;2023-04-16T10:33:23;90451.13;;;17.33;43.47
6395;BME280;3230;42.588;23.358;2023-04-16T10:35:50;90456.84;;;17.10;42.30
6395;BME280;3230;42.588;23.358;2023-04-16T10:38:34;90453.75;;;17.20;42.99
6395;BME280;3230;42.588;23.358;2023-04-16T10:41:03;90449.53;;;17.07;42.18
6395;BME280;3230;42.588;23.358;2023-04-16T10:43:48;90462.66;;;17.49;43.77
6395;BME280;3230;42.588;23.358;2023-04-16T10:46:34;90453.03;;;17.32;42.97
6395;BME280;3230;42.588;23.358;2023-04-16T10:49:23;90459.53;;;17.35;42.91
6395;BME280;3230;42.588;23.358;2023-04-16T10:52:00;90453.66;;;17.17;44.25
6395;BME280;3230;42.588;23.358;2023-04-16T10:54:34;90459.53;;;17.35;42.71
6395;BME280;3230;42.588;23.358;2023-04-16T10:57:03;90460.41;;;17.26;44.01
6395;BME280;3230;42.588;23.358;2023-04-16T10:59:33;90452.44;;;17.26;43.80
6395;BME280;3230;42.588;23.358;2023-04-16T11:02:01;90446.91;;;17.07;43.80
6395;BME280;3230;42.588;23.358;2023-04-16T11:04:35;90446.19;;;16.98;44.21
6395;BME280;3230;42.588;23.358;2023-04-16T11:12:16;90444.81;;;16.91;45.09
6395;BME280;3230;42.588;23.358;2023-04-16T11:14:46;90446.34;;;16.80;45.64
6395;BME280;3230;42.588;23.358;2023-04-16T11:17:12;90447.69;;;16.86;44.99
6395;BME280;3230;42.588;23.358;2023-04-16T11:19:37;90447.56;;;17.04;44.37
6395;BME280;3230;42.588;23.358;2023-04-16T11:22:03;90444.09;;;17.37;45.23
6395;BME280;3230;42.588;23.358;2023-04-16T11:24:31;90447.75;;;16.99;46.59
6395;BME280;3230;42.588;23.358;2023-04-16T11:26:57;90436.28;;;16.94;48.99
6395;BME280;3230;42.588;23.358;2023-04-16T11:29:23;90440.03;;;16.93;50.26
6395;BME280;3230;42.588;23.358;2023-04-16T11:31:49;90431.00;;;17.07;47.39
6395;BME280;3230;42.588;23.358;2023-04-16T11:34:16;90438.19;;;17.06;49.72
6395;BME280;3230;42.588;23.358;2023-04-16T11:36:46;90419.97;;;17.05;55.44
6395;BME280;3230;42.588;23.358;2023-04-16T11:39:12;90426.66;;;17.36;51.29
6395;BME280;3230;42.588;23.358;2023-04-16T11:41:44;90430.06;;;17.24;49.02
6395;BME280;3230;42.588;23.358;2023-04-16T11:44:24;90423.31;;;17.14;52.81
6395;BME280;3230;42.588;23.358;2023-04-16T11:46:50;90414.28;;;17.15;59.83
6395;BME280;3230;42.588;23.358;2023-04-16T11:49:17;90416.41;;;17.59;57.79
6395;BME280;3230;42.588;23.358;2023-04-16T11:51:51;90416.75;;;17.70;56.36
6395;BME280;3230;42.588;23.358;2023-04-16T11:54:21;90409.44;;;17.54;51.64
6395;BME280;3230;42.588;23.358;2023-04-16T11:56:49;90407.16;;;18.02;53.18
6395;BME280;3230;42.588;23.358;2023-04-16T11:59:22;90408.13;;;18.10;48.20
6395;BME280;3230;42.588;23.358;2023-04-16T12:01:52;90394.97;;;18.14;50.99
6395;BME280;3230;42.588;23.358;2023-04-16T12:04:24;90397.31;;;17.66;45.79
6395;BME280;3230;42.588;23.358;2023-04-16T12:09:35;90390.19;;;18.32;45.23
6395;BME280;3230;42.588;23.358;2023-04-16T12:12:01;90389.13;;;18.49;43.90
6395;BME280;3230;42.588;23.358;2023-04-16T12:14:27;90386.56;;;18.52;45.89
6395;BME280;3230;42.588;23.358;2023-04-16T12:16:54;90381.16;;;18.49;48.00
6395;BME280;3230;42.588;23.358;2023-04-16T12:19:20;90376.81;;;18.28;45.43
6395;BME280;3230;42.588;23.358;2023-04-16T12:21:48;90379.44;;;18.41;47.62
6395;BME280;3230;42.588;23.358;2023-04-16T12:24:16;90380.66;;;18.31;42.83
6395;BME280;3230;42.588;23.358;2023-04-16T12:26:46;90377.06;;;18.11;44.31
6395;BME280;3230;42.588;23.358;2023-04-16T12:29:19;90373.91;;;18.05;42.92
6395;BME280;3230;42.588;23.358;2023-04-16T12:31:50;90379.97;;;17.43;45.14
6395;BME280;3230;42.588;23.358;2023-04-16T12:34:16;90366.75;;;17.43;49.17
6395;BME280;3230;42.588;23.358;2023-04-16T12:36:43;90369.72;;;17.30;49.11
6395;BME280;3230;42.588;23.358;2023-04-16T12:39:09;90366.84;;;17.59;45.70
6395;BME280;3230;42.588;23.358;2023-04-16T12:41:36;90367.19;;;17.58;47.86
6395;BME280;3230;42.588;23.358;2023-04-16T12:44:07;90359.56;;;17.56;44.97
6395;BME280;3230;42.588;23.358;2023-04-16T12:46:42;90354.72;;;17.21;45.53
6395;BME280;3230;42.588;23.358;2023-04-16T12:49:09;90352.41;;;17.45;45.93
6395;BME280;3230;42.588;23.358;2023-04-16T12:51:35;90353.81;;;17.54;44.68
6395;BME280;3230;42.588;23.358;2023-04-16T12:54:03;90352.06;;;17.34;45.33
6395;BME280;3230;42.588;23.358;2023-04-16T12:56:29;90352.06;;;17.34;45.48
6395;BME280;3230;42.588;23.358;2023-04-16T12:58:54;90347.88;;;17.20;46.50
6395;BME280;3230;42.588;23.358;2023-04-16T13:01:20;90339.81;;;17.04;47.50
6395;BME280;3230;42.588;23.358;2023-04-16T13:03:46;90341.72;;;16.70;49.55
6395;BME280;3230;42.588;23.358;2023-04-16T13:06:13;90344.81;;;16.72;49.46
6395;BME280;3230;42.588;23.358;2023-04-16T13:08:39;90340.44;;;16.43;52.29
6395;BME280;3230;42.588;23.358;2023-04-16T13:11:05;90344.63;;;16.90;49.48
6395;BME280;3230;42.588;23.358;2023-04-16T13:13:31;90351.16;;;16.59;49.99
6395;BME280;3230;42.588;23.358;2023-04-16T13:15:57;90346.53;;;16.68;49.93
6395;BME280;3230;42.588;23.358;2023-04-16T13:18:23;90340.84;;;16.66;48.98
6395;BME280;3230;42.588;23.358;2023-04-16T13:20:48;90342.66;;;16.53;50.15